sensor_id;sensor_type;location;lat;lon;timestamp;pressure;altitude;pressure_sealevel;temperature;humidity
81387;BME280;70842;50.744;7.114;2023-06-26T00:00:24;100779.41;;;23.79;48.30
81387;BME280;70842;50.744;7.114;2023-06-26T00:02:51;100778.75;;;23.57;48.30
81387;BME280;70842;50.744;7.114;2023-06-26T00:05:17;100775.81;;;23.52;48.32
81387;BME280;70842;50.744;7.114;2023-06-26T00:07:44;100772.13;;;23.60;48.55
81387;BME280;70842;50.744;7.114;2023-06-26T00:10:10;100776.91;;;23.58;48.45
81387;BME280;70842;50.744;7.114;2023-06-26T00:12:37;100775.00;;;23.58;48.59
81387;BME280;70842;50.744;7.114;2023-06-26T00:15:03;100769.78;;;23.50;48.74
81387;BME280;70842;50.744;7.114;2023-06-26T00:17:30;100773.34;;;23.51;48.75
81387;BME280;70842;50.744;7.114;2023-06-26T00:19:57;100772.50;;;23.50;48.65
81387;BME280;70842;50.744;7.114;2023-06-26T00:22:23;100772.72;;;23.49;48.63
81387;BME280;70842;50.744;7.114;2023-06-26T00:24:49;100776.84;;;23.38;49.26
81387;BME280;70842;50.744;7.114;2023-06-26T00:27:16;100774.09;;;23.32;49.41
81387;BME280;70842;50.744;7.114;2023-06-26T00:29:42;100763.13;;;23.40;48.96
81387;BME280;70842;50.744;7.114;2023-06-26T00:32:09;100771.16;;;23.26;49.30
81387;BME280;70842;50.744;7.114;2023-06-26T00:34:35;100768.47;;;23.26;48.64
81387;BME280;70842;50.744;7.114;2023-06-26T00:37:01;100764.09;;;23.25;48.90
81387;BME280;70842;50.744;7.114;2023-06-26T00:39:28;100766.53;;;23.14;49.10
81387;BME280;70842;50.744;7.114;2023-06-26T00:41:54;100766.34;;;23.09;49.71
81387;BME280;70842;50.744;7.114;2023-06-26T00:44:21;100763.16;;;22.99;49.91
81387;BME280;70842;50.744;7.114;2023-06-26T00:46:48;100761.47;;;22.91;50.04
81387;BME280;70842;50.744;7.114;2023-06-26T00:49:14;100762.31;;;22.92;50.61
81387;BME280;70842;50.744;7.114;2023-06-26T00:51:41;100758.56;;;22.93;50.19
81387;BME280;70842;50.744;7.114;2023-06-26T00:54:07;100754.66;;;23.02;50.16
81387;BME280;70842;50.744;7.114;2023-06-26T00:56:34;100760.88;;;22.96;50.05
81387;BME280;70842;50.744;7.114;2023-06-26T00:59:01;100751.47;;;22.85;50.16
81387;BME280;70842;50.744;7.114;2023-06-26T01:01:27;100761.06;;;22.88;50.71
81387;BME280;70842;50.744;7.114;2023-06-26T01:03:54;100756.69;;;22.87;50.04
81387;BME280;70842;50.744;7.114;2023-06-26T01:06:22;100759.31;;;22.74;50.82
81387;BME280;70842;50.744;7.114;2023-06-26T01:08:49;100756.38;;;22.62;50.84
81387;BME280;70842;50.744;7.114;2023-06-26T01:15:04;100745.34;;;22.64;50.49
81387;BME280;70842;50.744;7.114;2023-06-26T01:17:30;100743.91;;;22.68;50.19
81387;BME280;70842;50.744;7.114;2023-06-26T01:20:03;100740.22;;;22.75;50.01
81387;BME280;70842;50.744;7.114;2023-06-26T01:22:48;100740.00;;;22.77;49.64
81387;BME280;70842;50.744;7.114;2023-06-26T01:25:21;100741.88;;;22.76;49.51
81387;BME280;70842;50.744;7.114;2023-06-26T01:27:50;100738.97;;;22.78;49.36
81387;BME280;70842;50.744;7.114;2023-06-26T01:30:19;100733.13;;;22.74;49.25
81387;BME280;70842;50.744;7.114;2023-06-26T01:32:47;100730.03;;;22.71;49.36
81387;BME280;70842;50.744;7.114;2023-06-26T01:35:15;100737.66;;;22.61;50.01
81387;BME280;70842;50.744;7.114;2023-06-26T01:37:42;100724.69;;;22.49;50.17
81387;BME280;70842;50.744;7.114;2023-06-26T01:40:08;100723.41;;;22.45;50.79
81387;BME280;70842;50.744;7.114;2023-06-26T01:42:36;100729.59;;;22.39;50.43
81387;BME280;70842;50.744;7.114;2023-06-26T01:45:07;100727.78;;;22.46;50.20
81387;BME280;70842;50.744;7.114;2023-06-26T01:47:37;100726.94;;;22.46;50.35
81387;BME280;70842;50.744;7.114;2023-06-26T01:50:12;100723.81;;;22.42;50.42
81387;BME280;70842;50.744;7.114;2023-06-26T01:52:43;100719.03;;;22.44;50.72
81387;BME280;70842;50.744;7.114;2023-06-26T01:55:20;100727.94;;;22.38;50.37
81387;BME280;70842;50.744;7.114;2023-06-26T01:57:48;100727.66;;;22.27;50.89
81387;BME280;70842;50.744;7.114;2023-06-26T02:00:17;100729.88;;;22.17;51.60
81387;BME280;70842;50.744;7.114;2023-06-26T02:02:44;100728.03;;;22.17;51.76
81387;BME280;70842;50.744;7.114;2023-06-26T02:05:12;100728.66;;;22.19;51.60
81387;BME280;70842;50.744;7.114;2023-06-26T02:07:38;100720.94;;;22.16;51.57
81387;BME280;70842;50.744;7.114;2023-06-26T02:10:05;100724.69;;;22.15;51.88
81387;BME280;70842;50.744;7.114;2023-06-26T02:12:32;100729.66;;;22.12;51.64
81387;BME280;70842;50.744;7.114;2023-06-26T02:14:58;100729.34;;;22.00;52.15
81387;BME280;70842;50.744;7.114;2023-06-26T02:17:25;100720.94;;;21.89;52.51
81387;BME280;70842;50.744;7.114;2023-06-26T02:19:51;100731.56;;;21.90;52.20
81387;BME280;70842;50.744;7.114;2023-06-26T02:22:18;100735.91;;;21.91;52.30
81387;BME280;70842;50.744;7.114;2023-06-26T02:24:44;100731.50;;;21.84;52.72
81387;BME280;70842;50.744;7.114;2023-06-26T02:27:11;100733.00;;;21.86;52.43
81387;BME280;70842;50.744;7.114;2023-06-26T02:29:38;100719.59;;;21.78;52.77
81387;BME280;70842;50.744;7.114;2023-06-26T02:32:05;100731.72;;;21.82;52.17
81387;BME280;70842;50.744;7.114;2023-06-26T02:34:32;100737.09;;;21.82;52.26
81387;BME280;70842;50.744;7.114;2023-06-26T02:36:59;100744.84;;;21.70;52.16
81387;BME280;70842;50.744;7.114;2023-06-26T02:39:27;100749.59;;;21.68;51.94
81387;BME280;70842;50.744;7.114;2023-06-26T02:41:53;100752.50;;;21.67;51.66
81387;BME280;70842;50.744;7.114;2023-06-26T02:44:20;100767.00;;;21.87;52.00
81387;BME280;70842;50.744;7.114;2023-06-26T02:46:47;100762.91;;;21.91;51.48
81387;BME280;70842;50.744;7.114;2023-06-26T02:49:13;100770.84;;;21.99;51.83
81387;BME280;70842;50.744;7.114;2023-06-26T02:51:40;100767.19;;;22.07;52.08
81387;BME280;70842;50.744;7.114;2023-06-26T02:54:06;100765.44;;;21.99;52.73
81387;BME280;70842;50.744;7.114;2023-06-26T02:56:33;100764.38;;;21.94;51.92
81387;BME280;70842;50.744;7.114;2023-06-26T02:59:01;100767.97;;;22.01;50.88
81387;BME280;70842;50.744;7.114;2023-06-26T03:01:28;100772.25;;;21.74;52.14
81387;BME280;70842;50.744;7.114;2023-06-26T03:03:55;100770.94;;;21.85;50.83
81387;BME280;70842;50.744;7.114;2023-06-26T03:06:21;100767.66;;;21.89;50.74
81387;BME280;70842;50.744;7.114;2023-06-26T03:08:48;100779.03;;;21.85;50.45
81387;BME280;70842;50.744;7.114;2023-06-26T03:11:14;100782.00;;;21.90;50.30
81387;BME280;70842;50.744;7.114;2023-06-26T03:13:41;100795.97;;;22.00;51.82
81387;BME280;70842;50.744;7.114;2023-06-26T03:16:07;100801.84;;;22.03;51.50
81387;BME280;70842;50.744;7.114;2023-06-26T03:18:33;100795.00;;;22.07;51.35
81387;BME280;70842;50.744;7.114;2023-06-26T03:21:00;100799.63;;;22.13;51.36
81387;BME280;70842;50.744;7.114;2023-06-26T03:23:27;100797.22;;;22.25;51.33
81387;BME280;70842;50.744;7.114;2023-06-26T03:25:53;100797.72;;;22.35;50.48
81387;BME280;70842;50.744;7.114;2023-06-26T03:28:20;100793.75;;;22.10;51.03
81387;BME280;70842;50.744;7.114;2023-06-26T03:30:46;100793.53;;;22.05;50.81
81387;BME280;70842;50.744;7.114;2023-06-26T03:33:13;100799.41;;;21.87;51.48
81387;BME280;70842;50.744;7.114;2023-06-26T03:35:39;100805.75;;;21.58;53.16
81387;BME280;70842;50.744;7.114;2023-06-26T03:38:06;100810.13;;;21.45;53.65
81387;BME280;70842;50.744;7.114;2023-06-26T03:40:32;100809.78;;;21.48;53.20
81387;BME280;70842;50.744;7.114;2023-06-26T03:42:58;100819.16;;;21.52;53.87
81387;BME280;70842;50.744;7.114;2023-06-26T03:45:25;100816.44;;;21.52;53.98
81387;BME280;70842;50.744;7.114;2023-06-26T03:47:51;100823.84;;;21.64;53.96
81387;BME280;70842;50.744;7.114;2023-06-26T03:50:19;100828.13;;;21.80;53.54
81387;BME280;70842;50.744;7.114;2023-06-26T03:52:46;100831.16;;;21.70;54.22
81387;BME280;70842;50.744;7.114;2023-06-26T03:55:12;100829.34;;;21.92;53.33
81387;BME280;70842;50.744;7.114;2023-06-26T03:57:39;100836.97;;;21.89;53.54
81387;BME280;70842;50.744;7.114;2023-06-26T04:00:05;100833.22;;;22.11;53.36
81387;BME280;70842;50.744;7.114;2023-06-26T04:02:35;100844.03;;;22.11;53.90
81387;BME280;70842;50.744;7.114;2023-06-26T04:05:01;100835.72;;;22.12;54.32
81387;BME280;70842;50.744;7.114;2023-06-26T04:07:29;100830.28;;;22.06;54.61
81387;BME280;70842;50.744;7.114;2023-06-26T04:09:57;100838.06;;;22.15;53.62
81387;BME280;70842;50.744;7.114;2023-06-26T04:12:24;100839.59;;;22.24;53.95
81387;BME280;70842;50.744;7.114;2023-06-26T04:14:50;100835.53;;;22.35;53.99
81387;BME280;70842;50.744;7.114;2023-06-26T04:17:17;100843.78;;;22.33;54.11
81387;BME280;70842;50.744;7.114;2023-06-26T04:19:43;100838.41;;;22.33;53.72
81387;BME280;70842;50.744;7.114;2023-06-26T04:22:10;100837.75;;;22.31;54.83
81387;BME280;70842;50.744;7.114;2023-06-26T04:24:36;100844.78;;;22.26;55.20
81387;BME280;70842;50.744;7.114;2023-06-26T04:27:02;100844.44;;;22.35;52.55
81387;BME280;70842;50.744;7.114;2023-06-26T04:29:29;100854.28;;;22.43;52.86
81387;BME280;70842;50.744;7.114;2023-06-26T04:31:56;100850.88;;;22.34;53.38
81387;BME280;70842;50.744;7.114;2023-06-26T04:34:25;100849.19;;;22.33;54.34
81387;BME280;70842;50.744;7.114;2023-06-26T04:36:52;100863.75;;;22.32;54.86
81387;BME280;70842;50.744;7.114;2023-06-26T04:39:18;100855.69;;;22.39;54.69
81387;BME280;70842;50.744;7.114;2023-06-26T04:41:45;100861.84;;;22.54;53.91
81387;BME280;70842;50.744;7.114;2023-06-26T04:44:12;100862.78;;;22.68;53.33
81387;BME280;70842;50.744;7.114;2023-06-26T04:46:39;100869.16;;;22.88;51.72
81387;BME280;70842;50.744;7.114;2023-06-26T04:49:08;100869.00;;;22.96;51.26
81387;BME280;70842;50.744;7.114;2023-06-26T04:51:35;100864.25;;;23.04;49.92
81387;BME280;70842;50.744;7.114;2023-06-26T04:54:07;100865.56;;;23.15;50.06
81387;BME280;70842;50.744;7.114;2023-06-26T04:56:34;100871.75;;;23.09;49.90
81387;BME280;70842;50.744;7.114;2023-06-26T04:59:01;100876.78;;;23.18;50.50
81387;BME280;70842;50.744;7.114;2023-06-26T05:01:29;100877.63;;;23.19;50.13
81387;BME280;70842;50.744;7.114;2023-06-26T05:03:56;100879.31;;;23.20;50.28
81387;BME280;70842;50.744;7.114;2023-06-26T05:06:22;100879.00;;;23.02;50.98
81387;BME280;70842;50.744;7.114;2023-06-26T05:08:49;100887.69;;;22.97;51.14
81387;BME280;70842;50.744;7.114;2023-06-26T05:11:15;100885.25;;;23.02;50.41
81387;BME280;70842;50.744;7.114;2023-06-26T05:13:42;100888.81;;;23.09;51.11
81387;BME280;70842;50.744;7.114;2023-06-26T05:16:08;100882.38;;;23.10;51.30
81387;BME280;70842;50.744;7.114;2023-06-26T05:18:36;100885.44;;;23.01;51.42
81387;BME280;70842;50.744;7.114;2023-06-26T05:21:02;100894.19;;;23.03;51.60
81387;BME280;70842;50.744;7.114;2023-06-26T05:23:34;100895.44;;;23.00;51.67
81387;BME280;70842;50.744;7.114;2023-06-26T05:26:03;100896.41;;;22.93;52.59
81387;BME280;70842;50.744;7.114;2023-06-26T05:28:30;100894.13;;;22.90;52.53
81387;BME280;70842;50.744;7.114;2023-06-26T05:31:02;100893.69;;;22.93;51.73
81387;BME280;70842;50.744;7.114;2023-06-26T05:33:34;100898.47;;;22.91;52.01
81387;BME280;70842;50.744;7.114;2023-06-26T05:36:03;100897.00;;;22.88;51.96
81387;BME280;70842;50.744;7.114;2023-06-26T05:38:30;100899.50;;;22.90;52.53
81387;BME280;70842;50.744;7.114;2023-06-26T05:40:57;100901.34;;;22.83;52.31
81387;BME280;70842;50.744;7.114;2023-06-26T05:43:23;100899.47;;;22.83;52.21
81387;BME280;70842;50.744;7.114;2023-06-26T05:45:54;100906.19;;;22.94;51.11
81387;BME280;70842;50.744;7.114;2023-06-26T05:48:20;100907.09;;;23.07;51.00
81387;BME280;70842;50.744;7.114;2023-06-26T05:50:47;100910.88;;;23.13;50.28
81387;BME280;70842;50.744;7.114;2023-06-26T05:53:14;100907.38;;;22.85;50.90
81387;BME280;70842;50.744;7.114;2023-06-26T05:55:40;100903.75;;;22.71;51.54
81387;BME280;70842;50.744;7.114;2023-06-26T05:58:10;100903.44;;;22.87;51.41
81387;BME280;70842;50.744;7.114;2023-06-26T06:00:39;100908.81;;;22.81;51.76
81387;BME280;70842;50.744;7.114;2023-06-26T06:03:06;100909.19;;;22.78;51.47
81387;BME280;70842;50.744;7.114;2023-06-26T06:05:33;100913.72;;;22.71;52.01
81387;BME280;70842;50.744;7.114;2023-06-26T06:07:59;100924.38;;;22.79;52.03
81387;BME280;70842;50.744;7.114;2023-06-26T06:10:26;100923.59;;;22.85;51.60
81387;BME280;70842;50.744;7.114;2023-06-26T06:12:52;100934.16;;;22.80;51.73
81387;BME280;70842;50.744;7.114;2023-06-26T06:15:21;100933.91;;;22.53;52.48
81387;BME280;70842;50.744;7.114;2023-06-26T06:17:47;100937.16;;;22.64;52.42
81387;BME280;70842;50.744;7.114;2023-06-26T06:20:13;100938.09;;;22.56;52.53
81387;BME280;70842;50.744;7.114;2023-06-26T06:22:40;100940.28;;;22.46;52.96
81387;BME280;70842;50.744;7.114;2023-06-26T06:25:07;100934.13;;;22.52;53.25
81387;BME280;70842;50.744;7.114;2023-06-26T06:27:33;100949.00;;;22.63;52.54
81387;BME280;70842;50.744;7.114;2023-06-26T06:30:00;100950.19;;;22.39;53.84
81387;BME280;70842;50.744;7.114;2023-06-26T06:32:26;100956.53;;;22.52;53.73
81387;BME280;70842;50.744;7.114;2023-06-26T06:34:52;100948.44;;;22.31;54.17
81387;BME280;70842;50.744;7.114;2023-06-26T06:37:19;100962.59;;;22.33;54.91
81387;BME280;70842;50.744;7.114;2023-06-26T06:39:45;100960.16;;;22.17;55.39
81387;BME280;70842;50.744;7.114;2023-06-26T06:42:12;100959.47;;;22.30;55.01
81387;BME280;70842;50.744;7.114;2023-06-26T06:44:38;100957.34;;;22.25;55.33
81387;BME280;70842;50.744;7.114;2023-06-26T06:47:05;100976.00;;;22.41;55.24
81387;BME280;70842;50.744;7.114;2023-06-26T06:49:31;100988.31;;;22.29;54.97
81387;BME280;70842;50.744;7.114;2023-06-26T06:51:57;100975.59;;;22.44;54.95
81387;BME280;70842;50.744;7.114;2023-06-26T06:54:26;100978.56;;;22.49;54.80
81387;BME280;70842;50.744;7.114;2023-06-26T06:56:53;100975.38;;;22.46;54.75
81387;BME280;70842;50.744;7.114;2023-06-26T06:59:19;100977.66;;;22.42;55.07
81387;BME280;70842;50.744;7.114;2023-06-26T07:01:45;100979.91;;;22.39;55.74
81387;BME280;70842;50.744;7.114;2023-06-26T07:04:12;100982.78;;;22.37;55.86
81387;BME280;70842;50.744;7.114;2023-06-26T07:06:38;100983.50;;;22.46;55.48
81387;BME280;70842;50.744;7.114;2023-06-26T07:09:05;100983.19;;;22.56;55.88
81387;BME280;70842;50.744;7.114;2023-06-26T07:11:32;100969.97;;;22.61;55.07
81387;BME280;70842;50.744;7.114;2023-06-26T07:13:59;100979.63;;;22.55;55.89
81387;BME280;70842;50.744;7.114;2023-06-26T07:16:25;100990.78;;;22.45;56.36
81387;BME280;70842;50.744;7.114;2023-06-26T07:18:52;100996.75;;;22.41;55.81
81387;BME280;70842;50.744;7.114;2023-06-26T07:21:18;101005.56;;;22.49;56.00
81387;BME280;70842;50.744;7.114;2023-06-26T07:23:45;101003.94;;;22.55;55.99
81387;BME280;70842;50.744;7.114;2023-06-26T07:26:14;101015.59;;;22.56;56.24
81387;BME280;70842;50.744;7.114;2023-06-26T07:28:41;101015.78;;;22.54;55.86
81387;BME280;70842;50.744;7.114;2023-06-26T07:31:07;101020.63;;;22.59;56.32
81387;BME280;70842;50.744;7.114;2023-06-26T07:33:34;101015.25;;;22.44;56.00
81387;BME280;70842;50.744;7.114;2023-06-26T07:36:00;101029.00;;;22.28;56.30
81387;BME280;70842;50.744;7.114;2023-06-26T07:38:27;101022.53;;;22.22;56.14
81387;BME280;70842;50.744;7.114;2023-06-26T07:40:53;101035.47;;;22.12;57.45
81387;BME280;70842;50.744;7.114;2023-06-26T07:43:19;101022.81;;;22.13;57.61
81387;BME280;70842;50.744;7.114;2023-06-26T07:45:46;101031.19;;;22.18;56.85
81387;BME280;70842;50.744;7.114;2023-06-26T07:48:12;101033.88;;;22.18;57.03
81387;BME280;70842;50.744;7.114;2023-06-26T07:50:39;101031.00;;;22.19;57.48
81387;BME280;70842;50.744;7.114;2023-06-26T07:53:06;101032.16;;;22.31;56.97
81387;BME280;70842;50.744;7.114;2023-06-26T07:55:32;101035.84;;;22.45;56.84
81387;BME280;70842;50.744;7.114;2023-06-26T07:57:59;101038.81;;;22.50;56.25
81387;BME280;70842;50.744;7.114;2023-06-26T08:00:25;101048.94;;;22.48;56.34
81387;BME280;70842;50.744;7.114;2023-06-26T08:02:52;101036.81;;;22.59;56.67
81387;BME280;70842;50.744;7.114;2023-06-26T08:05:19;101030.47;;;22.66;56.75
81387;BME280;70842;50.744;7.114;2023-06-26T08:07:46;101034.78;;;22.61;56.07
81387;BME280;70842;50.744;7.114;2023-06-26T08:10:13;101028.88;;;22.36;57.48
81387;BME280;70842;50.744;7.114;2023-06-26T08:12:39;101027.72;;;22.60;57.12
81387;BME280;70842;50.744;7.114;2023-06-26T08:15:07;101030.66;;;22.86;56.47
81387;BME280;70842;50.744;7.114;2023-06-26T08:17:34;101047.88;;;22.85;56.36
81387;BME280;70842;50.744;7.114;2023-06-26T08:20:02;101042.41;;;22.57;56.13
81387;BME280;70842;50.744;7.114;2023-06-26T08:22:28;101045.78;;;22.59;55.45
81387;BME280;70842;50.744;7.114;2023-06-26T08:24:55;101059.31;;;22.44;56.44
81387;BME280;70842;50.744;7.114;2023-06-26T08:27:21;101048.63;;;22.36;56.46
81387;BME280;70842;50.744;7.114;2023-06-26T08:29:48;101052.22;;;22.22;57.17
81387;BME280;70842;50.744;7.114;2023-06-26T08:32:15;101052.81;;;22.39;56.93
81387;BME280;70842;50.744;7.114;2023-06-26T08:34:41;101056.59;;;22.59;55.97
81387;BME280;70842;50.744;7.114;2023-06-26T08:37:07;101069.78;;;22.69;55.67
81387;BME280;70842;50.744;7.114;2023-06-26T08:39:35;101069.06;;;22.60;54.87
81387;BME280;70842;50.744;7.114;2023-06-26T08:42:01;101063.75;;;22.67;54.42
81387;BME280;70842;50.744;7.114;2023-06-26T08:44:28;101060.56;;;22.63;55.38
81387;BME280;70842;50.744;7.114;2023-06-26T08:46:55;101059.13;;;22.61;55.50
81387;BME280;70842;50.744;7.114;2023-06-26T08:49:25;101072.72;;;22.74;54.58
81387;BME280;70842;50.744;7.114;2023-06-26T08:51:59;101066.03;;;22.70;54.65
81387;BME280;70842;50.744;7.114;2023-06-26T08:54:34;101082.44;;;22.68;53.85
81387;BME280;70842;50.744;7.114;2023-06-26T08:57:01;101075.84;;;22.71;54.22
81387;BME280;70842;50.744;7.114;2023-06-26T08:59:28;101089.91;;;22.87;53.64
81387;BME280;70842;50.744;7.114;2023-06-26T09:01:55;101077.19;;;22.81;53.07
81387;BME280;70842;50.744;7.114;2023-06-26T09:04:22;101079.31;;;22.65;53.44
81387;BME280;70842;50.744;7.114;2023-06-26T09:06:48;101076.78;;;22.63;53.81
81387;BME280;70842;50.744;7.114;2023-06-26T09:09:15;101084.44;;;22.81;53.41
81387;BME280;70842;50.744;7.114;2023-06-26T09:11:41;101072.47;;;22.90;53.54
81387;BME280;70842;50.744;7.114;2023-06-26T09:14:08;101070.84;;;22.95;54.32
81387;BME280;70842;50.744;7.114;2023-06-26T09:16:40;101080.19;;;22.93;52.27
81387;BME280;70842;50.744;7.114;2023-06-26T09:19:11;101078.66;;;22.84;52.61
81387;BME280;70842;50.744;7.114;2023-06-26T09:21:39;101072.59;;;23.03;53.06
81387;BME280;70842;50.744;7.114;2023-06-26T09:24:07;101080.16;;;23.14;51.99
81387;BME280;70842;50.744;7.114;2023-06-26T09:26:39;101080.69;;;23.24;51.47
81387;BME280;70842;50.744;7.114;2023-06-26T09:29:06;101080.16;;;23.14;52.34
81387;BME280;70842;50.744;7.114;2023-06-26T09:31:34;101078.81;;;23.03;53.37
81387;BME280;70842;50.744;7.114;2023-06-26T09:34:08;101081.03;;;22.93;53.59
81387;BME280;70842;50.744;7.114;2023-06-26T09:36:34;101084.50;;;22.87;52.54
81387;BME280;70842;50.744;7.114;2023-06-26T09:39:07;101089.06;;;23.08;52.17
81387;BME280;70842;50.744;7.114;2023-06-26T09:41:38;101088.97;;;23.22;51.80
81387;BME280;70842;50.744;7.114;2023-06-26T09:44:05;101083.50;;;23.16;52.48
81387;BME280;70842;50.744;7.114;2023-06-26T09:46:32;101087.97;;;23.02;50.88
81387;BME280;70842;50.744;7.114;2023-06-26T09:49:04;101099.75;;;22.95;50.11
81387;BME280;70842;50.744;7.114;2023-06-26T09:51:35;101112.88;;;22.98;51.11
81387;BME280;70842;50.744;7.114;2023-06-26T09:54:03;101098.19;;;23.28;50.43
81387;BME280;70842;50.744;7.114;2023-06-26T09:56:32;101097.13;;;23.29;48.19
81387;BME280;70842;50.744;7.114;2023-06-26T09:59:00;101096.25;;;23.22;48.39
81387;BME280;70842;50.744;7.114;2023-06-26T10:01:28;101102.88;;;23.19;47.18
81387;BME280;70842;50.744;7.114;2023-06-26T10:03:55;101110.53;;;23.16;47.12
81387;BME280;70842;50.744;7.114;2023-06-26T10:06:31;101103.19;;;23.31;47.95
81387;BME280;70842;50.744;7.114;2023-06-26T10:09:01;101104.09;;;23.38;47.67
81387;BME280;70842;50.744;7.114;2023-06-26T10:11:35;101101.91;;;23.27;48.26
81387;BME280;70842;50.744;7.114;2023-06-26T10:14:04;101104.59;;;23.48;46.84
81387;BME280;70842;50.744;7.114;2023-06-26T10:16:44;101113.13;;;23.24;46.73
81387;BME280;70842;50.744;7.114;2023-06-26T10:19:12;101111.28;;;23.31;46.74
81387;BME280;70842;50.744;7.114;2023-06-26T10:21:39;101113.66;;;23.34;46.94
81387;BME280;70842;50.744;7.114;2023-06-26T10:24:07;101117.69;;;23.45;46.77
81387;BME280;70842;50.744;7.114;2023-06-26T10:26:38;101119.75;;;23.43;47.42
81387;BME280;70842;50.744;7.114;2023-06-26T10:29:07;101128.72;;;23.43;46.30
81387;BME280;70842;50.744;7.114;2023-06-26T10:31:35;101117.06;;;23.21;45.46
81387;BME280;70842;50.744;7.114;2023-06-26T10:34:02;101126.19;;;23.42;45.92
81387;BME280;70842;50.744;7.114;2023-06-26T10:36:31;101122.03;;;23.46;43.01
81387;BME280;70842;50.744;7.114;2023-06-26T10:39:02;101121.97;;;23.60;42.59
81387;BME280;70842;50.744;7.114;2023-06-26T10:41:39;101121.84;;;23.75;43.82
81387;BME280;70842;50.744;7.114;2023-06-26T10:44:40;101125.06;;;23.57;42.65
81387;BME280;70842;50.744;7.114;2023-06-26T10:47:07;101138.75;;;23.49;44.54
81387;BME280;70842;50.744;7.114;2023-06-26T10:49:35;101141.19;;;23.44;41.15
81387;BME280;70842;50.744;7.114;2023-06-26T10:52:02;101130.44;;;23.29;42.76
81387;BME280;70842;50.744;7.114;2023-06-26T10:54:31;101150.56;;;23.48;42.23
81387;BME280;70842;50.744;7.114;2023-06-26T10:56:58;101140.81;;;23.47;42.21
81387;BME280;70842;50.744;7.114;2023-06-26T10:59:26;101153.91;;;23.50;42.88
81387;BME280;70842;50.744;7.114;2023-06-26T11:02:01;101152.91;;;23.51;43.32
81387;BME280;70842;50.744;7.114;2023-06-26T11:04:44;101141.03;;;23.31;42.54
81387;BME280;70842;50.744;7.114;2023-06-26T11:07:24;101146.53;;;23.38;43.43
81387;BME280;70842;50.744;7.114;2023-06-26T11:10:00;101141.25;;;23.51;43.35
81387;BME280;70842;50.744;7.114;2023-06-26T11:12:38;101139.75;;;23.76;40.61
81387;BME280;70842;50.744;7.114;2023-06-26T11:15:13;101131.41;;;23.71;41.01
81387;BME280;70842;50.744;7.114;2023-06-26T11:17:41;101122.75;;;23.88;41.70
81387;BME280;70842;50.744;7.114;2023-06-26T11:20:10;101139.78;;;23.82;40.69
81387;BME280;70842;50.744;7.114;2023-06-26T11:22:38;101146.56;;;23.99;41.19
81387;BME280;70842;50.744;7.114;2023-06-26T11:25:05;101142.41;;;24.03;39.47
81387;BME280;70842;50.744;7.114;2023-06-26T11:27:37;101144.56;;;24.08;39.14
81387;BME280;70842;50.744;7.114;2023-06-26T11:30:05;101146.25;;;24.09;39.87
81387;BME280;70842;50.744;7.114;2023-06-26T11:32:32;101147.13;;;24.23;40.92
81387;BME280;70842;50.744;7.114;2023-06-26T11:35:01;101156.78;;;24.32;40.12
81387;BME280;70842;50.744;7.114;2023-06-26T11:37:27;101153.47;;;24.43;40.71
81387;BME280;70842;50.744;7.114;2023-06-26T11:39:54;101150.09;;;24.28;39.63
81387;BME280;70842;50.744;7.114;2023-06-26T11:42:20;101154.59;;;24.14;39.99
81387;BME280;70842;50.744;7.114;2023-06-26T11:44:47;101164.56;;;24.14;40.33
81387;BME280;70842;50.744;7.114;2023-06-26T11:47:18;101162.56;;;24.29;39.21
81387;BME280;70842;50.744;7.114;2023-06-26T11:49:49;101160.97;;;24.47;38.35
81387;BME280;70842;50.744;7.114;2023-06-26T11:52:15;101167.91;;;24.16;38.89
81387;BME280;70842;50.744;7.114;2023-06-26T11:54:42;101163.13;;;24.11;38.43
81387;BME280;70842;50.744;7.114;2023-06-26T11:57:13;101169.91;;;24.00;36.89
81387;BME280;70842;50.744;7.114;2023-06-26T11:59:40;101168.72;;;23.82;37.24
81387;BME280;70842;50.744;7.114;2023-06-26T12:02:08;101160.25;;;23.91;37.77
81387;BME280;70842;50.744;7.114;2023-06-26T12:04:37;101164.00;;;24.25;38.89
81387;BME280;70842;50.744;7.114;2023-06-26T12:07:05;101157.72;;;24.18;38.14
81387;BME280;70842;50.744;7.114;2023-06-26T12:09:38;101164.81;;;24.19;37.55
81387;BME280;70842;50.744;7.114;2023-06-26T12:12:05;101172.41;;;24.36;37.58
81387;BME280;70842;50.744;7.114;2023-06-26T12:14:33;101163.00;;;24.26;37.50
81387;BME280;70842;50.744;7.114;2023-06-26T12:17:11;101176.28;;;24.21;36.70
81387;BME280;70842;50.744;7.114;2023-06-26T12:19:42;101166.53;;;24.33;35.20
81387;BME280;70842;50.744;7.114;2023-06-26T12:22:09;101172.28;;;24.51;33.99
81387;BME280;70842;50.744;7.114;2023-06-26T12:24:37;101168.56;;;24.65;34.05
81387;BME280;70842;50.744;7.114;2023-06-26T12:27:23;101161.25;;;24.59;33.92
81387;BME280;70842;50.744;7.114;2023-06-26T12:29:53;101158.16;;;24.68;32.60
81387;BME280;70842;50.744;7.114;2023-06-26T12:32:24;101177.00;;;24.96;33.00
81387;BME280;70842;50.744;7.114;2023-06-26T12:34:52;101165.72;;;24.86;32.42
81387;BME280;70842;50.744;7.114;2023-06-26T12:37:19;101167.41;;;24.87;32.80
81387;BME280;70842;50.744;7.114;2023-06-26T12:39:53;101163.59;;;24.68;34.17
81387;BME280;70842;50.744;7.114;2023-06-26T12:42:24;101171.59;;;24.96;33.33
81387;BME280;70842;50.744;7.114;2023-06-26T12:44:52;101178.22;;;24.74;33.19
81387;BME280;70842;50.744;7.114;2023-06-26T12:47:24;101193.13;;;24.57;33.76
81387;BME280;70842;50.744;7.114;2023-06-26T12:49:52;101185.69;;;24.72;33.54
81387;BME280;70842;50.744;7.114;2023-06-26T12:52:19;101178.59;;;24.71;33.23
81387;BME280;70842;50.744;7.114;2023-06-26T12:54:49;101203.28;;;24.89;32.76
81387;BME280;70842;50.744;7.114;2023-06-26T12:57:17;101179.50;;;24.85;33.20